Map

Track Data

SID SEASON NUMBER BASIN SUBBASIN NAME ISO_TIME NATURE LAT LON WMO_WIND WMO_PRES WMO_AGENCY TRACK_TYPE DIST2LAND LANDFALL IFLAG USA_AGENCY USA_ATCF_ID USA_LAT USA_LON USA_RECORD USA_STATUS USA_WIND USA_PRES USA_SSHS USA_R34_NE USA_R34_SE USA_R34_SW USA_R34_NW USA_R50_NE USA_R50_SE USA_R50_SW USA_R50_NW USA_R64_NE USA_R64_SE USA_R64_SW USA_R64_NW USA_POCI USA_ROCI USA_RMW USA_EYE TOKYO_LAT TOKYO_LON TOKYO_GRADE TOKYO_WIND TOKYO_PRES TOKYO_R50_DIR TOKYO_R50_LONG TOKYO_R50_SHORT TOKYO_R30_DIR TOKYO_R30_LONG TOKYO_R30_SHORT TOKYO_LAND CMA_LAT CMA_LON CMA_CAT CMA_WIND CMA_PRES HKO_LAT HKO_LON HKO_CAT HKO_WIND HKO_PRES NEWDELHI_LAT NEWDELHI_LON NEWDELHI_GRADE NEWDELHI_WIND NEWDELHI_PRES NEWDELHI_CI NEWDELHI_DP NEWDELHI_POCI REUNION_LAT REUNION_LON REUNION_TYPE REUNION_WIND REUNION_PRES REUNION_TNUM REUNION_CI REUNION_RMW REUNION_R34_NE REUNION_R34_SE REUNION_R34_SW REUNION_R34_NW REUNION_R50_NE REUNION_R50_SE REUNION_R50_SW REUNION_R50_NW REUNION_R64_NE REUNION_R64_SE REUNION_R64_SW REUNION_R64_NW BOM_LAT BOM_LON BOM_TYPE BOM_WIND BOM_PRES BOM_TNUM BOM_CI BOM_RMW BOM_R34_NE BOM_R34_SE BOM_R34_SW BOM_R34_NW BOM_R50_NE BOM_R50_SE BOM_R50_SW BOM_R50_NW BOM_R64_NE BOM_R64_SE BOM_R64_SW BOM_R64_NW BOM_ROCI BOM_POCI BOM_EYE BOM_POS_METHOD BOM_PRES_METHOD NADI_LAT NADI_LON NADI_CAT NADI_WIND NADI_PRES WELLINGTON_LAT WELLINGTON_LON WELLINGTON_WIND WELLINGTON_PRES DS824_LAT DS824_LON DS824_STAGE DS824_WIND DS824_PRES TD9636_LAT TD9636_LON TD9636_STAGE TD9636_WIND TD9636_PRES TD9635_LAT TD9635_LON TD9635_WIND TD9635_PRES TD9635_ROCI NEUMANN_LAT NEUMANN_LON NEUMANN_CLASS NEUMANN_WIND NEUMANN_PRES MLC_LAT MLC_LON MLC_CLASS MLC_WIND MLC_PRES USA_GUST BOM_GUST BOM_GUST_PER REUNION_GUST REUNION_GUST_PER USA_SEAHGT USA_SEARAD_NE USA_SEARAD_SE USA_SEARAD_SW USA_SEARAD_NW STORM_SPEED STORM_DIR
1989212N15318 1989 72 NA NA DEAN 1989-07-31 06:00:00 TS 14.8000 -41.8000 25 1010 hurdat_atl main 1570 1502 O_____________ hurdat_atl AL051989 14.8000 -41.8000 TD 25 1010 -1 23 276
1989212N15318 1989 72 NA NA DEAN 1989-07-31 09:00:00 TS 14.9164 -42.9821 main 1495 1440 P_____________ AL051989 14.9164 -42.9821 TD 25 1009 -1 22 275
1989212N15318 1989 72 NA NA DEAN 1989-07-31 12:00:00 TS 15.0000 -44.1000 25 1009 hurdat_atl main 1434 1370 O_____________ hurdat_atl AL051989 15.0000 -44.1000 TD 25 1009 -1 21 274
1989212N15318 1989 72 NA NA DEAN 1989-07-31 15:00:00 TS 15.0420 -45.1028 main 1370 1323 P_____________ AL051989 15.0420 -45.1028 TD 27 1008 -1 18 273
1989212N15318 1989 72 NA NA DEAN 1989-07-31 18:00:00 TS 15.1000 -46.0000 30 1008 hurdat_atl main 1323 1287 O_____________ hurdat_atl AL051989 15.1000 -46.0000 TD 30 1008 -1 17 276
1989212N15318 1989 72 NA NA DEAN 1989-07-31 21:00:00 TS 15.2269 -46.8151 main 1287 1266 P_____________ AL051989 15.2269 -46.8151 TD 30 1007 -1 16 281
1989212N15318 1989 72 NA NA DEAN 1989-08-01 00:00:00 TS 15.4000 -47.6000 30 1006 hurdat_atl main 1266 1248 O_____________ hurdat_atl AL051989 15.4000 -47.6000 TD 30 1006 -1 16 283
1989212N15318 1989 72 NA NA DEAN 1989-08-01 03:00:00 TS 15.5997 -48.4350 main 1249 1230 P_____________ AL051989 15.5997 -48.4350 TD 32 1005 -1 17 284
1989212N15318 1989 72 NA NA DEAN 1989-08-01 06:00:00 TS 15.8000 -49.3000 35 1004 hurdat_atl main 1230 1206 O_____________ hurdat_atl AL051989 15.8000 -49.3000 TS 35 1004 0 17 282
1989212N15318 1989 72 NA NA DEAN 1989-08-01 09:00:00 TS 15.9572 -50.1927 main 1212 1193 P_____________ AL051989 15.9572 -50.1927 TS 37 1003 0 18 280
1989212N15318 1989 72 NA NA DEAN 1989-08-01 12:00:00 TS 16.1000 -51.1000 40 1002 hurdat_atl main 1191 1151 O_____________ hurdat_atl AL051989 16.1000 -51.1000 TS 40 1002 0 18 280
1989212N15318 1989 72 NA NA DEAN 1989-08-01 15:00:00 TS 16.2572 -52.0075 main 1157 1083 P_____________ AL051989 16.2572 -52.0075 TS 42 1001 0 18 280
1989212N15318 1989 72 NA NA DEAN 1989-08-01 18:00:00 TS 16.4000 -52.9000 45 1000 hurdat_atl main 1083 1021 O_____________ hurdat_atl AL051989 16.4000 -52.9000 TS 45 1000 0 17 278
1989212N15318 1989 72 NA NA DEAN 1989-08-01 21:00:00 TS 16.4995 -53.7503 main 1013 956 P_____________ AL051989 16.4995 -53.7503 TS 47 999 0 16 277
1989212N15318 1989 72 NA NA DEAN 1989-08-02 00:00:00 TS 16.6000 -54.6000 50 998 hurdat_atl main 956 904 O_____________ hurdat_atl AL051989 16.6000 -54.6000 TS 50 998 0 17 278
1989212N15318 1989 72 NA NA DEAN 1989-08-02 03:00:00 TS 16.7348 -55.5001 main 896 853 P_____________ AL051989 16.7348 -55.5001 TS 55 997 0 18 280
1989212N15318 1989 72 NA NA DEAN 1989-08-02 06:00:00 TS 16.9000 -56.4000 60 996 hurdat_atl main 853 821 O_____________ hurdat_atl AL051989 16.9000 -56.4000 TS 60 996 0 17 281
1989212N15318 1989 72 NA NA DEAN 1989-08-02 09:00:00 TS 17.0773 -57.2802 main 820 800 P_____________ AL051989 17.0773 -57.2802 TS 62 995 0 17 284
1989212N15318 1989 72 NA NA DEAN 1989-08-02 12:00:00 TS 17.3000 -58.1000 65 994 hurdat_atl main 800 722 O_____________ hurdat_atl AL051989 17.3000 -58.1000 HU 65 994 1 16 289
1989212N15318 1989 72 NA NA DEAN 1989-08-02 15:00:00 TS 17.5846 -58.8375 main 722 645 P_____________ AL051989 17.5846 -58.8375 HU 67 993 1 15 294
1989212N15318 1989 72 NA NA DEAN 1989-08-02 18:00:00 TS 17.9000 -59.5000 70 992 hurdat_atl main 645 580 O_____________ hurdat_atl AL051989 17.9000 -59.5000 HU 70 992 1 14 297
1989212N15318 1989 72 NA NA DEAN 1989-08-02 21:00:00 TS 18.2148 -60.1300 main 580 517 P_____________ AL051989 18.2148 -60.1300 HU 70 991 1 13 298
1989212N15318 1989 72 NA NA DEAN 1989-08-03 00:00:00 TS 18.5000 -60.7000 70 990 hurdat_atl main 517 465 O_____________ hurdat_atl AL051989 18.5000 -60.7000 HU 70 990 1 11 296
1989212N15318 1989 72 NA NA DEAN 1989-08-03 03:00:00 TS 18.7147 -61.2153 main 465 414 P_____________ AL051989 18.7147 -61.2153 HU 70 988 1 10 293
1989212N15318 1989 72 NA NA DEAN 1989-08-03 06:00:00 TS 18.9000 -61.7000 70 987 hurdat_atl main 414 366 O_____________ hurdat_atl AL051989 18.9000 -61.7000 HU 70 987 1 10 292
1989212N15318 1989 72 NA NA DEAN 1989-08-03 09:00:00 TS 19.1000 -62.2225 main 366 321 P_____________ AL051989 19.1000 -62.2225 HU 72 986 1 10 293
1989212N15318 1989 72 NA NA DEAN 1989-08-03 12:00:00 TS 19.3000 -62.7000 75 985 hurdat_atl main 321 290 O_____________ hurdat_atl AL051989 19.3000 -62.7000 HU 75 985 1 9 296
1989212N15318 1989 72 NA NA DEAN 1989-08-03 15:00:00 TS 19.4999 -63.0951 main 290 273 P_____________ AL051989 19.4999 -63.0951 HU 75 985 1 8 301
1989212N15318 1989 72 NA NA DEAN 1989-08-03 18:00:00 TS 19.7000 -63.4000 75 985 hurdat_atl main 273 262 O_____________ hurdat_atl AL051989 19.7000 -63.4000 HU 75 985 1 7 308
1989212N15318 1989 72 NA NA DEAN 1989-08-03 21:00:00 TS 19.9074 -63.6450 main 268 260 P_____________ AL051989 19.9074 -63.6450 HU 75 985 1 6 317
1989212N15318 1989 72 NA NA DEAN 1989-08-04 00:00:00 TS 20.1000 -63.8000 75 986 hurdat_atl main 268 268 O_____________ hurdat_atl AL051989 20.1000 -63.8000 HU 75 986 1 4 327
1989212N15318 1989 72 NA NA DEAN 1989-08-04 03:00:00 TS 20.2425 -63.8801 main 269 269 P_____________ AL051989 20.2425 -63.8801 HU 75 986 1 3 343
1989212N15318 1989 72 NA NA DEAN 1989-08-04 06:00:00 TS 20.4000 -63.9000 75 986 hurdat_atl main 286 286 O_____________ hurdat_atl AL051989 20.4000 -63.9000 HU 75 986 1 4 354
1989212N15318 1989 72 NA NA DEAN 1989-08-04 09:00:00 TS 20.6200 -63.9150 main 303 303 P_____________ AL051989 20.6200 -63.9150 HU 75 985 1 5 2
1989212N15318 1989 72 NA NA DEAN 1989-08-04 12:00:00 TS 20.9000 -63.9000 75 985 hurdat_atl main 331 331 O_____________ hurdat_atl AL051989 20.9000 -63.9000 HU 75 985 1 6 5
1989212N15318 1989 72 NA NA DEAN 1989-08-04 15:00:00 TS 21.2200 -63.8501 main 360 360 P_____________ AL051989 21.2200 -63.8501 HU 75 984 1 7 8
1989212N15318 1989 72 NA NA DEAN 1989-08-04 18:00:00 TS 21.6000 -63.8000 75 984 hurdat_atl main 404 404 O_____________ hurdat_atl AL051989 21.6000 -63.8000 HU 75 984 1 8 4
1989212N15318 1989 72 NA NA DEAN 1989-08-04 21:00:00 TS 22.0275 -63.7924 main 444 444 P_____________ AL051989 22.0275 -63.7924 HU 75 983 1 9 0
1989212N15318 1989 72 NA NA DEAN 1989-08-05 00:00:00 TS 22.5000 -63.8000 75 983 hurdat_atl main 495 495 O_____________ hurdat_atl AL051989 22.5000 -63.8000 HU 75 983 1 10 358
1989212N15318 1989 72 NA NA DEAN 1989-08-05 03:00:00 TS 22.9775 -63.7926 main 547 547 P_____________ AL051989 22.9775 -63.7926 HU 75 983 1 10 1
1989212N15318 1989 72 NA NA DEAN 1989-08-05 06:00:00 TS 23.5000 -63.8000 75 983 hurdat_atl main 600 600 O_____________ hurdat_atl AL051989 23.5000 -63.8000 HU 75 983 1 11 358
1989212N15318 1989 72 NA NA DEAN 1989-08-05 09:00:00 TS 24.0775 -63.8424 main 664 664 P_____________ AL051989 24.0775 -63.8424 HU 75 981 1 12 356
1989212N15318 1989 72 NA NA DEAN 1989-08-05 12:00:00 TS 24.7000 -63.9000 75 980 hurdat_atl main 725 725 O_____________ hurdat_atl AL051989 24.7000 -63.9000 HU 75 980 1 13 356
1989212N15318 1989 72 NA NA DEAN 1989-08-05 15:00:00 TS 25.3200 -63.9354 main 791 791 P_____________ AL051989 25.3200 -63.9354 HU 75 980 1 13 356
1989212N15318 1989 72 NA NA DEAN 1989-08-05 18:00:00 TS 26.0000 -64.0000 75 980 hurdat_atl main 865 865 O_____________ hurdat_atl AL051989 26.0000 -64.0000 HU 75 980 1 15 353
1989212N15318 1989 72 NA NA DEAN 1989-08-05 21:00:00 TS 26.7775 -64.1349 main 951 951 P_____________ AL051989 26.7775 -64.1349 HU 75 979 1 16 351
1989212N15318 1989 72 NA NA DEAN 1989-08-06 00:00:00 TS 27.6000 -64.3000 75 979 hurdat_atl main 1036 1036 O_____________ hurdat_atl AL051989 27.6000 -64.3000 HU 75 979 1 17 350
1989212N15318 1989 72 NA NA DEAN 1989-08-06 03:00:00 TS 28.4000 -64.4429 main 1124 1123 P_____________ AL051989 28.4000 -64.4429 HU 77 978 1 16 351
1989212N15318 1989 72 NA NA DEAN 1989-08-06 06:00:00 TS 29.2000 -64.6000 80 978 hurdat_atl main 1203 1187 O_____________ hurdat_atl AL051989 29.2000 -64.6000 HU 80 978 1 16 349
1989212N15318 1989 72 NA NA DEAN 1989-08-06 09:00:00 TS 30.0001 -64.8146 main 1187 1121 P_____________ AL051989 30.0001 -64.8146 HU 80 976 1 16 348
1989212N15318 1989 72 NA NA DEAN 1989-08-06 12:00:00 TS 30.8000 -65.0000 80 975 hurdat_atl main 1121 1067 O_____________ hurdat_atl AL051989 30.8000 -65.0000 HU 80 975 1 16 351
1989212N15318 1989 72 NA NA DEAN 1989-08-06 15:00:00 TS 31.5999 -65.0950 main 1067 1027 P_____________ AL051989 31.5999 -65.0950 HU 82 973 1 16 357
1989212N15318 1989 72 NA NA DEAN 1989-08-06 18:00:00 TS 32.4000 -65.1000 85 971 hurdat_atl main 1027 997 O_____________ hurdat_atl AL051989 32.4000 -65.1000 HU 85 971 2 16 2
1989212N15318 1989 72 NA NA DEAN 1989-08-06 21:00:00 TS 33.2000 -65.0375 main 1002 966 P_____________ AL051989 33.2000 -65.0375 HU 87 969 2 16 6
1989212N15318 1989 72 NA NA DEAN 1989-08-07 00:00:00 TS 34.0000 -64.9000 90 968 hurdat_atl main 966 905 O_____________ hurdat_atl AL051989 34.0000 -64.9000 HU 90 968 2 16 9
1989212N15318 1989 72 NA NA DEAN 1989-08-07 03:00:00 TS 34.7775 -64.7221 main 895 829 P_____________ AL051989 34.7775 -64.7221 HU 90 968 2 16 12
1989212N15318 1989 72 NA NA DEAN 1989-08-07 06:00:00 TS 35.6000 -64.5000 90 969 hurdat_atl main 829 758 O_____________ hurdat_atl AL051989 35.6000 -64.5000 HU 90 969 2 18 12
1989212N15318 1989 72 NA NA DEAN 1989-08-07 09:00:00 TS 36.5275 -64.2645 main 758 687 P_____________ AL051989 36.5275 -64.2645 HU 87 974 2 19 12
1989212N15318 1989 72 NA NA DEAN 1989-08-07 12:00:00 TS 37.5000 -64.0000 85 979 hurdat_atl main 676 581 O_____________ hurdat_atl AL051989 37.5000 -64.0000 HU 85 979 2 19 12
1989212N15318 1989 72 NA NA DEAN 1989-08-07 15:00:00 TS 38.4195 -63.7566 main 581 493 P_____________ AL051989 38.4195 -63.7566 HU 82 975 1 20 14
1989212N15318 1989 72 NA NA DEAN 1989-08-07 18:00:00 TS 39.4000 -63.4000 80 972 hurdat_atl main 482 393 O_____________ hurdat_atl AL051989 39.4000 -63.4000 HU 80 972 1 22 18
1989212N15318 1989 72 NA NA DEAN 1989-08-07 21:00:00 TS 40.5112 -62.8810 main 387 323 P_____________ AL051989 40.5112 -62.8810 HU 77 973 1 25 23
1989212N15318 1989 72 NA NA DEAN 1989-08-08 00:00:00 TS 41.7000 -62.1000 75 975 hurdat_atl main 320 245 O_____________ hurdat_atl AL051989 41.7000 -62.1000 HU 75 975 1 27 30
1989212N15318 1989 72 NA NA DEAN 1989-08-08 03:00:00 TS 42.8915 -61.0389 main 242 163 P_____________ AL051989 42.8915 -61.0389 HU 70 976 1 30 36
1989212N15318 1989 72 NA NA DEAN 1989-08-08 06:00:00 TS 44.1000 -59.7000 65 978 hurdat_atl main 164 145 O_____________ hurdat_atl AL051989 44.1000 -59.7000 HU 65 978 1 32 40
1989212N15318 1989 72 NA NA DEAN 1989-08-08 09:00:00 TS 45.2995 -58.1999 main 157 80 P_____________ AL051989 45.2995 -58.1999 HU 60 984 0 33 43
1989212N15318 1989 72 NA NA DEAN 1989-08-08 12:00:00 TS 46.5000 -56.5000 55 991 hurdat_atl main 67 7 O_____________ hurdat_atl AL051989 46.5000 -56.5000 TS 55 991 0 34 45
1989212N15318 1989 72 NA NA DEAN 1989-08-08 13:00:00 TS 46.9000 -55.9000 55 991 hurdat_atl main 7 0 O_____________ hurdat_atl AL051989 46.9000 -55.9000 L TS 55 991 0 33 44
1989212N15318 1989 72 NA NA DEAN 1989-08-08 15:00:00 TS 47.6798 -54.8383 main 0 0 P_____________ AL051989 47.6798 -54.8383 TS 51 992 0 31 44
1989212N15318 1989 72 NA NA DEAN 1989-08-08 18:00:00 TS 48.8000 -53.2000 45 995 hurdat_atl main 22 22 O_____________ hurdat_atl AL051989 48.8000 -53.2000 TS 45 995 0 34 50
1989212N15318 1989 72 NA NA DEAN 1989-08-08 21:00:00 TS 49.8932 -50.8868 main 198 198 P_____________ AL051989 49.8932 -50.8868 TS 42 997 0 38 59
1989212N15318 1989 72 NA NA DEAN 1989-08-09 00:00:00 ET 50.8000 -48.1000 40 1000 hurdat_atl main 418 418 O_____________ hurdat_atl AL051989 50.8000 -48.1000 EX 40 1000 -4 40 68
1989212N15318 1989 72 NA NA DEAN 1989-08-09 03:00:00 ET 51.4089 -45.0624 main 636 636 P_____________ AL051989 51.4089 -45.0624 EX 37 1001 -4 40 76
1989212N15318 1989 72 NA NA DEAN 1989-08-09 06:00:00 ET 51.8000 -41.9000 35 1003 hurdat_atl main 860 O_____________ hurdat_atl AL051989 51.8000 -41.9000 EX 35 1003 -4 40 79

About IBTrACS Database

This database is a web-friendly format of International Best Track Archive for Climate Stewardship (IBTrACS), a global best track data archive curated by NOAA dating back to 1842.

Updated: 2021-10-21